createdAt,value
2019-01-24T00:01:04.631Z,1.17
2019-01-24T00:03:37.102Z,1.90
2019-01-24T00:06:09.571Z,1.07
2019-01-24T00:11:38.351Z,1.70
2019-01-24T00:14:10.640Z,1.05
2019-01-24T00:16:43.238Z,1.10
2019-01-24T00:19:16.216Z,1.30
2019-01-24T00:21:49.405Z,0.80
2019-01-24T00:24:21.866Z,2.17
2019-01-24T00:26:54.009Z,1.17
2019-01-24T00:29:26.754Z,1.52
2019-01-24T00:31:59.204Z,1.00
2019-01-24T00:34:33.170Z,1.27
2019-01-24T00:37:06.337Z,2.40
2019-01-24T00:39:38.563Z,2.87
2019-01-24T00:42:11.129Z,1.20
2019-01-24T00:47:14.456Z,1.10
2019-01-24T00:49:47.096Z,1.30
2019-01-24T00:52:19.458Z,0.98
2019-01-24T00:54:51.567Z,1.57
2019-01-24T00:57:24.041Z,1.05
2019-01-24T00:59:56.348Z,0.85
2019-01-24T01:02:28.532Z,1.52
2019-01-24T01:07:36.990Z,1.42
2019-01-24T01:10:09.557Z,1.27
2019-01-24T01:12:42.605Z,0.82
2019-01-24T01:15:17.108Z,1.10
2019-01-24T01:17:49.702Z,1.30
2019-01-24T01:20:23.910Z,1.27
2019-01-24T01:22:56.579Z,1.57
2019-01-24T01:25:33.182Z,1.20
2019-01-24T01:28:05.688Z,0.90
2019-01-24T01:30:38.319Z,1.30
2019-01-24T01:33:10.820Z,2.02
2019-01-24T01:35:43.280Z,1.82
2019-01-24T01:38:17.418Z,0.93
2019-01-24T01:40:50.248Z,1.10
2019-01-24T01:43:22.836Z,1.98
2019-01-24T01:46:30.427Z,1.25
2019-01-24T01:51:58.625Z,1.42
2019-01-24T01:57:26.539Z,0.82
2019-01-24T01:59:59.294Z,1.87
2019-01-24T02:02:31.569Z,1.45
2019-01-24T02:05:04.018Z,1.05
2019-01-24T02:07:36.722Z,1.40
2019-01-24T02:10:12.657Z,1.25
2019-01-24T02:12:45.031Z,1.87
2019-01-24T02:15:18.078Z,1.52
2019-01-24T02:17:50.743Z,1.27
2019-01-24T02:20:24.258Z,1.37
2019-01-24T02:22:56.843Z,1.40
2019-01-24T02:25:30.234Z,1.87
2019-01-24T02:28:02.884Z,1.65
2019-01-24T02:30:35.213Z,1.62
2019-01-24T02:33:07.901Z,2.47
2019-01-24T02:35:40.232Z,1.45
2019-01-24T02:38:12.805Z,2.37
2019-01-24T02:40:45.050Z,1.20
2019-01-24T02:43:17.538Z,1.57
2019-01-24T02:45:50.054Z,2.80
2019-01-24T02:50:58.193Z,1.45
2019-01-24T02:53:30.603Z,2.27
2019-01-24T02:56:03.276Z,2.85
2019-01-24T02:58:35.638Z,1.75
2019-01-24T03:01:07.935Z,0.98
2019-01-24T03:03:40.467Z,1.50
2019-01-24T03:06:12.921Z,1.50
2019-01-24T03:08:45.127Z,2.50
2019-01-24T03:11:18.119Z,1.60
2019-01-24T03:13:51.172Z,2.00
2019-01-24T03:16:23.695Z,1.70
2019-01-24T03:18:56.073Z,1.85
2019-01-24T03:24:24.441Z,1.98
2019-01-24T03:26:57.031Z,2.10
2019-01-24T03:29:29.412Z,2.35
2019-01-24T03:32:02.122Z,1.77
2019-01-24T03:34:34.977Z,1.92
2019-01-24T03:37:08.275Z,1.95
2019-01-24T03:42:16.424Z,1.60
2019-01-24T03:44:49.263Z,3.02
2019-01-24T03:47:22.042Z,2.72
2019-01-24T03:49:54.548Z,2.85
2019-01-24T03:52:26.907Z,2.42
2019-01-24T03:54:59.417Z,2.35
2019-01-24T03:57:31.711Z,1.90
2019-01-24T04:00:04.621Z,2.60
2019-01-24T04:02:37.345Z,1.22
2019-01-24T04:05:11.961Z,1.70
2019-01-24T04:07:43.883Z,2.08
2019-01-24T04:10:20.585Z,2.60
2019-01-24T04:12:53.218Z,2.02
2019-01-24T04:15:27.564Z,2.37
2019-01-24T04:18:00.318Z,2.55
2019-01-24T04:20:32.545Z,3.15
2019-01-24T04:23:04.839Z,1.80
2019-01-24T04:25:37.554Z,1.37
2019-01-24T04:28:10.109Z,2.00
2019-01-24T04:30:42.536Z,2.05
2019-01-24T04:33:14.897Z,1.75
2019-01-24T04:35:47.492Z,2.50
2019-01-24T04:38:19.932Z,1.52
2019-01-24T04:40:52.530Z,0.90
2019-01-24T04:43:25.018Z,1.60
2019-01-24T04:45:57.404Z,2.10
2019-01-24T04:51:39.082Z,2.05
2019-01-24T04:54:15.060Z,1.32
2019-01-24T04:56:47.436Z,2.30
2019-01-24T04:59:20.413Z,2.40
2019-01-24T05:01:52.983Z,1.87
2019-01-24T05:04:25.138Z,3.05
2019-01-24T05:06:58.781Z,3.15
2019-01-24T05:09:31.113Z,1.22
2019-01-24T05:12:03.351Z,2.13
2019-01-24T05:14:35.695Z,1.37
2019-01-24T05:17:08.335Z,2.05
2019-01-24T05:19:40.367Z,1.20
2019-01-24T05:22:12.676Z,1.77
2019-01-24T05:24:44.846Z,1.50
2019-01-24T05:27:17.213Z,2.67
2019-01-24T05:29:49.488Z,2.33
2019-01-24T05:32:21.932Z,1.87
2019-01-24T05:34:54.413Z,1.47
2019-01-24T05:37:26.522Z,1.20
2019-01-24T05:39:58.928Z,2.30
2019-01-24T05:42:31.286Z,2.00
2019-01-24T05:45:03.627Z,1.50
2019-01-24T05:47:54.757Z,1.33
2019-01-24T05:50:26.993Z,2.00
2019-01-24T05:52:59.613Z,1.43
2019-01-24T05:55:32.331Z,1.43
2019-01-24T05:58:04.796Z,1.27
2019-01-24T06:00:39.932Z,1.30
2019-01-24T06:03:12.256Z,1.37
2019-01-24T06:05:44.407Z,1.10
2019-01-24T06:08:17.005Z,0.87
2019-01-24T06:10:49.275Z,1.03
2019-01-24T06:13:22.172Z,0.90
2019-01-24T06:15:54.329Z,1.57
2019-01-24T06:18:26.590Z,1.70
2019-01-24T06:20:59.132Z,0.80
2019-01-24T06:23:31.519Z,0.97
2019-01-24T06:26:03.955Z,1.67
2019-01-24T06:28:36.105Z,1.43
2019-01-24T06:31:08.204Z,0.97
2019-01-24T06:33:40.585Z,0.83
2019-01-24T06:36:12.922Z,0.60
2019-01-24T06:38:45.585Z,0.60
2019-01-24T06:41:18.288Z,0.63
2019-01-24T06:43:50.841Z,1.13
2019-01-24T06:46:23.092Z,1.00
2019-01-24T06:48:55.604Z,0.90
2019-01-24T06:51:28.164Z,0.60
2019-01-24T06:54:00.417Z,0.57
2019-01-24T06:56:33.025Z,0.73
2019-01-24T06:59:05.241Z,0.63
2019-01-24T07:01:38.390Z,0.47
2019-01-24T07:04:12.908Z,0.70
2019-01-24T07:06:45.510Z,0.93
2019-01-24T07:09:18.279Z,0.73
2019-01-24T07:11:50.775Z,0.47
2019-01-24T07:14:23.005Z,0.47
2019-01-24T07:16:55.432Z,1.07
2019-01-24T07:19:27.788Z,1.13
2019-01-24T07:22:00.075Z,0.37
2019-01-24T07:24:32.581Z,0.27
2019-01-24T07:27:04.865Z,0.67
2019-01-24T07:29:37.370Z,0.60
2019-01-24T07:32:09.639Z,0.50
2019-01-24T07:34:42.091Z,0.93
2019-01-24T07:37:14.349Z,0.40
2019-01-24T07:39:46.636Z,0.20
2019-01-24T07:42:19.509Z,0.10
2019-01-24T07:44:52.438Z,0.53
2019-01-24T07:47:24.606Z,0.90
2019-01-24T07:49:57.157Z,0.20
2019-01-24T07:52:29.653Z,0.30
2019-01-24T07:55:02.398Z,0.10
2019-01-24T07:57:34.683Z,0.30
2019-01-24T08:00:09.833Z,0.30
2019-01-24T08:02:42.254Z,0.50
2019-01-24T08:05:15.098Z,0.30
2019-01-24T08:07:47.309Z,0.30
2019-01-24T08:10:20.658Z,0.73
2019-01-24T08:12:53.540Z,0.33
2019-01-24T08:15:26.138Z,0.23
2019-01-24T08:17:58.259Z,0.50
2019-01-24T08:20:31.265Z,0.47
2019-01-24T08:23:03.651Z,0.53
2019-01-24T08:25:36.170Z,0.23
2019-01-24T08:28:09.002Z,0.30
2019-01-24T08:30:41.367Z,0.20
2019-01-24T08:33:13.708Z,0.67
2019-01-24T08:35:46.100Z,1.33
2019-01-24T08:38:18.692Z,1.07
2019-01-24T08:40:51.723Z,0.83
2019-01-24T08:43:24.117Z,0.90
2019-01-24T08:45:56.658Z,0.40
2019-01-24T08:48:28.881Z,0.40
2019-01-24T08:51:01.142Z,0.77
2019-01-24T08:53:33.397Z,0.60
2019-01-24T08:56:05.798Z,0.80
2019-01-24T08:58:38.747Z,0.80
2019-01-24T09:01:14.399Z,0.97
2019-01-24T09:03:46.645Z,0.50
2019-01-24T09:06:22.533Z,0.50
2019-01-24T09:08:53.226Z,1.00
2019-01-24T09:11:25.575Z,1.03
2019-01-24T09:13:57.837Z,0.53
2019-01-24T09:16:30.083Z,0.73
2019-01-24T09:19:02.273Z,0.27
2019-01-24T09:21:34.472Z,0.67
2019-01-24T09:24:06.581Z,0.50
2019-01-24T09:26:38.911Z,0.70
2019-01-24T09:29:11.160Z,0.40
2019-01-24T09:31:43.399Z,1.07
2019-01-24T09:34:15.774Z,0.67
2019-01-24T09:36:48.090Z,1.20
2019-01-24T09:39:20.297Z,0.30
2019-01-24T09:41:52.680Z,0.40
2019-01-24T09:44:24.973Z,0.80
2019-01-24T09:46:57.633Z,0.87
2019-01-24T09:49:30.042Z,0.37
2019-01-24T09:52:02.397Z,0.63
2019-01-24T09:54:34.839Z,0.40
2019-01-24T09:57:07.165Z,0.47
2019-01-24T09:59:39.749Z,0.60
2019-01-24T10:02:12.679Z,0.60
2019-01-24T10:04:45.252Z,0.50
2019-01-24T10:07:17.817Z,0.47
2019-01-24T10:09:50.651Z,0.20
2019-01-24T10:12:23.374Z,0.30
2019-01-24T10:14:55.816Z,0.73
2019-01-24T10:17:28.254Z,0.50
2019-01-24T10:20:00.430Z,0.57
2019-01-24T10:22:33.025Z,0.20
2019-01-24T10:25:05.632Z,0.37
2019-01-24T10:27:38.652Z,0.33
2019-01-24T10:30:12.461Z,0.33
2019-01-24T10:32:44.835Z,0.40
2019-01-24T10:35:17.116Z,0.30
2019-01-24T10:37:49.837Z,0.30
2019-01-24T10:40:24.441Z,0.40
2019-01-24T10:42:57.037Z,0.20
2019-01-24T10:45:29.327Z,0.20
2019-01-24T10:48:01.439Z,0.43
2019-01-24T10:50:35.238Z,0.30
2019-01-24T10:53:08.028Z,0.17
2019-01-24T10:55:40.177Z,0.50
2019-01-24T10:58:12.442Z,0.40
2019-01-24T11:00:46.731Z,0.30
2019-01-24T11:03:20.829Z,0.50
2019-01-24T11:05:53.308Z,0.27
2019-01-24T11:08:25.682Z,0.60
2019-01-24T11:10:57.861Z,0.23
2019-01-24T11:13:30.151Z,0.40
2019-01-24T11:16:02.677Z,0.37
2019-01-24T11:18:35.383Z,0.40
2019-01-24T11:21:07.524Z,0.40
2019-01-24T11:23:39.581Z,0.20
2019-01-24T11:26:11.943Z,0.43
2019-01-24T11:28:44.344Z,0.30
2019-01-24T11:31:16.369Z,0.53
2019-01-24T11:33:48.890Z,0.47
2019-01-24T11:36:21.052Z,0.50
2019-01-24T11:38:53.407Z,0.80
2019-01-24T11:41:25.834Z,0.50
2019-01-24T11:43:58.320Z,0.63
2019-01-24T11:46:30.652Z,0.93
2019-01-24T11:49:02.890Z,0.50
2019-01-24T11:51:35.249Z,0.20
2019-01-24T11:54:07.705Z,0.33
2019-01-24T11:56:39.989Z,0.40
2019-01-24T11:59:12.274Z,0.50
2019-01-24T12:01:45.208Z,0.80
2019-01-24T12:04:17.957Z,0.77
2019-01-24T12:06:50.414Z,0.70
2019-01-24T12:09:23.019Z,1.43
2019-01-24T12:11:55.267Z,1.40
2019-01-24T12:14:27.828Z,0.93
2019-01-24T12:17:00.197Z,0.67
2019-01-24T12:19:32.778Z,1.33
2019-01-24T12:22:05.062Z,1.83
2019-01-24T12:24:37.657Z,1.37
2019-01-24T12:27:09.995Z,1.37
2019-01-24T12:29:42.208Z,0.77
2019-01-24T12:32:14.708Z,0.80
2019-01-24T12:34:47.224Z,1.27
2019-01-24T12:37:19.613Z,1.03
2019-01-24T12:39:51.963Z,1.70
2019-01-24T12:42:24.404Z,1.30
2019-01-24T12:44:56.718Z,1.30
2019-01-24T12:47:28.861Z,1.70
2019-01-24T12:50:01.426Z,1.27
2019-01-24T12:52:33.818Z,1.93
2019-01-24T12:55:06.910Z,1.77
2019-01-24T12:57:39.335Z,1.97
2019-01-24T13:00:15.767Z,2.07
2019-01-24T13:02:48.165Z,1.53
2019-01-24T13:05:21.018Z,2.40
2019-01-24T13:07:53.475Z,2.93
2019-01-24T13:10:26.945Z,1.23
2019-01-24T13:12:59.397Z,2.13
2019-01-24T13:15:33.365Z,1.50
2019-01-24T13:18:06.211Z,1.00
2019-01-24T13:20:39.054Z,1.47
2019-01-24T13:23:11.305Z,1.63
2019-01-24T13:25:44.105Z,1.40
2019-01-24T13:28:16.775Z,1.43
2019-01-24T13:30:49.124Z,1.40
2019-01-24T13:33:21.688Z,0.47
2019-01-24T13:35:54.400Z,0.90
2019-01-24T13:38:26.501Z,2.30
2019-01-24T13:40:58.968Z,1.47
2019-01-24T13:43:31.186Z,1.50
2019-01-24T13:46:03.317Z,2.13
2019-01-24T13:48:35.791Z,1.23
2019-01-24T13:51:07.945Z,1.93
2019-01-24T13:53:40.751Z,1.57
2019-01-24T13:56:13.304Z,1.30
2019-01-24T13:58:45.557Z,1.53
2019-01-24T14:01:17.920Z,1.27
2019-01-24T14:04:14.963Z,1.60
2019-01-24T14:06:47.672Z,1.97
2019-01-24T14:09:19.876Z,2.80
2019-01-24T14:11:52.648Z,1.70
2019-01-24T14:14:25.193Z,1.53
2019-01-24T14:16:58.180Z,1.17
2019-01-24T14:19:30.374Z,1.57
2019-01-24T14:22:03.071Z,1.43
2019-01-24T14:24:35.555Z,3.60
2019-01-24T14:27:09.113Z,1.77
2019-01-24T14:29:41.444Z,2.10
2019-01-24T14:32:13.794Z,2.47
2019-01-24T14:34:46.181Z,1.73
2019-01-24T14:37:18.903Z,1.50
2019-01-24T14:39:51.758Z,1.83
2019-01-24T14:42:24.075Z,1.87
2019-01-24T14:44:57.191Z,2.67
2019-01-24T14:47:29.475Z,1.37
2019-01-24T14:50:01.878Z,1.27
2019-01-24T14:52:34.355Z,2.47
2019-01-24T14:55:07.015Z,1.77
2019-01-24T14:57:39.458Z,1.10
2019-01-24T15:00:17.343Z,1.83
2019-01-24T15:02:49.616Z,1.63
2019-01-24T15:05:22.161Z,1.57
2019-01-24T15:07:55.010Z,1.87
2019-01-24T15:10:27.935Z,1.17
2019-01-24T15:13:00.427Z,1.03
2019-01-24T15:15:33.277Z,0.93
2019-01-24T15:18:05.868Z,1.10
2019-01-24T15:20:38.313Z,0.87
2019-01-24T15:23:11.151Z,0.60
2019-01-24T15:25:43.480Z,0.67
2019-01-24T15:28:16.084Z,1.00
2019-01-24T15:30:48.483Z,0.93
2019-01-24T15:33:20.896Z,0.47
2019-01-24T15:35:53.314Z,0.50
2019-01-24T15:38:25.575Z,0.97
2019-01-24T15:40:58.235Z,0.47
2019-01-24T15:46:06.436Z,0.77
2019-01-24T15:48:42.450Z,0.83
2019-01-24T15:51:12.945Z,0.40
2019-01-24T15:53:45.099Z,0.40
2019-01-24T15:56:17.812Z,0.50
2019-01-24T15:58:50.530Z,0.50
2019-01-24T16:01:22.841Z,0.33
2019-01-24T16:03:55.458Z,0.77
2019-01-24T16:06:28.059Z,0.53
2019-01-24T16:09:00.118Z,0.63
2019-01-24T16:14:08.202Z,1.47
2019-01-24T16:16:40.852Z,0.60
2019-01-24T16:19:31.694Z,0.80
2019-01-24T16:22:03.828Z,0.40
2019-01-24T16:24:36.251Z,0.63
2019-01-24T16:27:08.349Z,0.73
2019-01-24T16:29:40.497Z,1.33
2019-01-24T16:32:13.183Z,0.77
2019-01-24T16:34:45.272Z,0.60
2019-01-24T16:37:18.169Z,0.80
2019-01-24T16:39:50.455Z,0.67
2019-01-24T16:42:22.724Z,0.70
2019-01-24T16:44:55.112Z,0.67
2019-01-24T16:47:27.973Z,0.70
2019-01-24T16:50:00.894Z,0.83
2019-01-24T16:52:33.165Z,0.30
2019-01-24T16:57:59.765Z,0.60
2019-01-24T17:00:41.596Z,0.93
2019-01-24T17:03:13.844Z,0.70
2019-01-24T17:05:46.704Z,0.30
2019-01-24T17:08:18.989Z,0.57
2019-01-24T17:10:51.175Z,0.60
2019-01-24T17:13:23.885Z,0.50
2019-01-24T17:15:56.192Z,0.60
2019-01-24T17:18:28.507Z,0.60
2019-01-24T17:21:00.866Z,0.60
2019-01-24T17:23:33.081Z,0.43
2019-01-24T17:26:05.943Z,0.50
2019-01-24T17:28:38.370Z,0.50
2019-01-24T17:31:10.494Z,0.70
2019-01-24T17:33:43.365Z,0.67
2019-01-24T17:36:15.822Z,0.80
2019-01-24T17:38:48.225Z,0.50
2019-01-24T17:41:20.609Z,1.13
2019-01-24T17:43:53.560Z,0.50
2019-01-24T17:46:25.980Z,0.77
2019-01-24T17:48:58.506Z,0.60
2019-01-24T17:54:19.373Z,0.60
2019-01-24T17:56:51.398Z,0.80
2019-01-24T17:59:24.341Z,0.33
2019-01-24T18:01:57.193Z,0.70
2019-01-24T18:04:29.443Z,1.00
2019-01-24T18:07:01.806Z,0.90
2019-01-24T18:09:34.058Z,0.40
2019-01-24T18:12:06.233Z,0.87
2019-01-24T18:14:38.557Z,0.53
2019-01-24T18:17:10.992Z,1.00
2019-01-24T18:19:43.524Z,0.50
2019-01-24T18:22:16.215Z,1.47
2019-01-24T18:24:48.523Z,0.97
2019-01-24T18:27:20.770Z,0.67
2019-01-24T18:29:53.133Z,0.60
2019-01-24T18:32:25.356Z,0.60
2019-01-24T18:34:58.087Z,0.90
2019-01-24T18:37:30.288Z,1.00
2019-01-24T18:40:02.803Z,1.17
2019-01-24T18:42:35.642Z,0.83
2019-01-24T18:45:09.921Z,0.70
2019-01-24T18:47:42.761Z,0.67
2019-01-24T18:50:18.342Z,0.70
2019-01-24T18:52:50.898Z,0.90
2019-01-24T18:55:23.523Z,0.63
2019-01-24T18:57:56.369Z,1.00
2019-01-24T19:00:37.812Z,0.73
2019-01-24T19:03:11.112Z,0.80
2019-01-24T19:05:44.287Z,0.90
2019-01-24T19:08:17.190Z,0.60
2019-01-24T19:10:49.535Z,0.90
2019-01-24T19:13:21.712Z,0.40
2019-01-24T19:15:54.488Z,1.30
2019-01-24T19:18:26.834Z,1.00
2019-01-24T19:20:59.070Z,0.40
2019-01-24T19:23:31.148Z,1.53
2019-01-24T19:26:03.582Z,1.40
2019-01-24T19:28:36.036Z,0.93
2019-01-24T19:31:08.528Z,1.67
2019-01-24T19:33:40.789Z,1.00
2019-01-24T19:36:13.270Z,1.33
2019-01-24T19:38:45.751Z,0.70
2019-01-24T19:41:19.407Z,0.70
2019-01-24T19:43:51.656Z,0.40
2019-01-24T19:46:24.145Z,0.70
2019-01-24T19:48:56.556Z,0.87
2019-01-24T19:51:29.147Z,0.90
2019-01-24T19:54:05.013Z,0.60
2019-01-24T19:56:38.134Z,0.90
2019-01-24T19:59:10.726Z,0.73
2019-01-24T20:01:43.546Z,0.60
2019-01-24T20:04:15.866Z,0.70
2019-01-24T20:06:49.246Z,0.93
2019-01-24T20:09:21.668Z,0.63
2019-01-24T20:11:54.029Z,0.67
2019-01-24T20:14:26.721Z,0.60
2019-01-24T20:16:59.011Z,0.50
2019-01-24T20:19:31.329Z,0.50
2019-01-24T20:22:03.750Z,0.50
2019-01-24T20:24:36.214Z,0.70
2019-01-24T20:27:09.328Z,0.50
2019-01-24T20:29:42.186Z,1.00
2019-01-24T20:32:14.948Z,0.70
2019-01-24T20:34:47.509Z,0.80
2019-01-24T20:37:20.088Z,0.70
2019-01-24T20:39:52.853Z,1.62
2019-01-24T20:42:25.166Z,0.88
2019-01-24T20:44:57.823Z,1.10
2019-01-24T20:47:30.358Z,0.85
2019-01-24T20:50:02.826Z,0.75
2019-01-24T20:52:35.437Z,0.50
2019-01-24T20:55:09.937Z,0.40
2019-01-24T20:57:42.339Z,0.53
2019-01-24T21:00:21.849Z,1.05
2019-01-24T21:02:54.387Z,1.07
2019-01-24T21:05:26.915Z,0.40
2019-01-24T21:07:59.387Z,0.80
2019-01-24T21:10:31.820Z,0.50
2019-01-24T21:13:04.235Z,0.50
2019-01-24T21:15:37.023Z,0.50
2019-01-24T21:18:09.563Z,0.35
2019-01-24T21:20:41.899Z,0.50
2019-01-24T21:23:14.878Z,0.88
2019-01-24T21:25:47.778Z,0.57
2019-01-24T21:28:20.277Z,0.98
2019-01-24T21:30:53.031Z,0.70
2019-01-24T21:33:25.681Z,0.50
2019-01-24T21:35:58.208Z,0.60
2019-01-24T21:38:30.600Z,0.60
2019-01-24T21:41:03.362Z,0.57
2019-01-24T21:43:35.795Z,0.70
2019-01-24T21:46:08.326Z,0.65
2019-01-24T21:48:40.597Z,0.70
2019-01-24T21:51:13.048Z,0.70
2019-01-24T21:53:45.821Z,0.60
2019-01-24T21:56:19.022Z,0.50
2019-01-24T21:58:51.509Z,0.65
2019-01-24T22:01:24.184Z,0.60
2019-01-24T22:03:56.625Z,0.50
2019-01-24T22:06:29.023Z,0.50
2019-01-24T22:09:01.371Z,0.60
2019-01-24T22:11:33.674Z,1.00
2019-01-24T22:14:06.277Z,0.70
2019-01-24T22:16:38.559Z,0.55
2019-01-24T22:19:10.808Z,0.47
2019-01-24T22:21:43.409Z,0.50
2019-01-24T22:24:15.770Z,0.50
2019-01-24T22:26:48.273Z,0.98
2019-01-24T22:29:20.745Z,1.87
2019-01-24T22:31:52.947Z,0.70
2019-01-24T22:43:03.947Z,0.50
2019-01-24T22:45:38.332Z,0.60
2019-01-24T22:48:10.624Z,0.50
2019-01-24T22:50:43.511Z,0.50
2019-01-24T22:53:29.623Z,0.50
2019-01-24T22:56:13.050Z,1.15
2019-01-24T22:58:45.973Z,1.12
2019-01-24T23:01:37.137Z,0.60
2019-01-24T23:04:22.284Z,0.60
2019-01-24T23:06:54.909Z,0.55
2019-01-24T23:09:27.469Z,0.50
2019-01-24T23:11:59.945Z,0.60
2019-01-24T23:14:32.431Z,0.50
2019-01-24T23:17:04.763Z,0.60
2019-01-24T23:19:37.259Z,0.50
2019-01-24T23:22:09.797Z,0.57
2019-01-24T23:24:42.233Z,0.60
2019-01-24T23:27:14.875Z,0.60
2019-01-24T23:29:47.222Z,0.60
2019-01-24T23:32:19.965Z,0.60
2019-01-24T23:35:10.382Z,0.70
2019-01-24T23:37:54.539Z,0.75
2019-01-24T23:40:27.689Z,0.60
2019-01-24T23:43:00.609Z,0.70
2019-01-24T23:45:33.445Z,0.65
2019-01-24T23:48:06.300Z,0.70
2019-01-24T23:53:33.351Z,0.70
2019-01-24T23:56:07.033Z,0.57
